Terminal Aerodrome Forecast
Issued by NWS Wichita, KS

Home | Current Version | Previous Version | Graphics & Text | Print | Product List | Glossary On
Versions: 1 2 3 4 5 6 7 8 9 10 11 12 13 14 15 16 17 18 19
236
FTUS43 KICT 181130
TAFICT
TAF
KICT 181130Z 1812/1912 12011KT P6SM SCT100 SCT250
     FM181700 13015G21KT P6SM SCT100 SCT250
     FM190200 13014KT P6SM VCTS BKN040CB=

USA.gov is the U.S. government's official web portal to all federal, state and local government web resources and services.